Time;durP1;ratioP1;P1;durP2;ratioP2;P2;SDS_P1;SDS_P2;PMS_P1;PMS_P2;Temp;Humidity;BMP_temperature;BMP_pressure;BME280_temperature;BME280_humidity;BME280_pressure;Samples;Min_cycle;Max_cycle;Signal;HPM_P1;HPM_P2
2022/10/12 00:00:02;;;;;;;13.27;5.35;;;9.40;99.90;;;;;;5073273;28;20166;-84
2022/10/12 00:02:28;;;;;;;13.55;4.97;;;9.20;99.90;;;;;;5071581;28;20634;-82
2022/10/12 00:04:53;;;;;;;7.28;4.63;;;9.10;99.90;;;;;;5073013;28;20308;-87
2022/10/12 00:07:19;;;;;;;12.43;4.57;;;9.10;99.90;;;;;;5072779;28;20233;-81
2022/10/12 00:09:44;;;;;;;7.68;4.57;;;9.10;99.90;;;;;;5073237;28;20166;-88
2022/10/12 00:12:16;;;;;;;11.95;4.95;;;9.20;99.90;;;;;;5073966;28;20189;-80
2022/10/12 00:14:41;;;;;;;8.80;4.40;;;9.30;99.90;;;;;;5071922;28;20209;-91
2022/10/12 00:17:07;;;;;;;8.27;3.88;;;9.30;99.90;;;;;;5071359;28;20170;-85
2022/10/12 00:19:33;;;;;;;11.43;4.30;;;9.20;99.90;;;;;;5073014;28;20170;-80
2022/10/12 00:21:58;;;;;;;8.88;3.75;;;9.20;99.90;;;;;;5071719;28;20184;-88
2022/10/12 00:24:24;;;;;;;9.45;4.78;;;9.20;99.90;;;;;;5071595;28;20211;-89
2022/10/12 00:26:50;;;;;;;13.27;4.22;;;9.20;99.90;;;;;;5071639;28;20269;-81
2022/10/12 00:29:15;;;;;;;8.43;4.53;;;9.10;99.90;;;;;;5071208;28;20182;-79
2022/10/12 00:31:41;;;;;;;17.60;5.00;;;9.10;99.90;;;;;;5072438;28;20169;-87
2022/10/12 00:34:07;;;;;;;6.93;4.45;;;9.10;99.90;;;;;;5072632;28;20575;-80
2022/10/12 00:36:34;;;;;;;10.95;4.82;;;9.20;99.90;;;;;;5071179;28;20297;-82
2022/10/12 00:39:02;;;;;;;5.13;4.18;;;9.10;99.90;;;;;;5072596;28;20158;-80
2022/10/12 00:41:31;;;;;;;8.18;4.88;;;9.10;99.90;;;;;;5071945;28;20185;-80
2022/10/12 00:43:57;;;;;;;9.48;4.80;;;9.10;99.90;;;;;;5071256;28;20206;-86
2022/10/12 00:46:29;;;;;;;11.75;4.50;;;9.00;99.90;;;;;;5070976;28;20239;-80
2022/10/12 00:49:00;;;;;;;9.27;3.97;;;8.90;99.90;;;;;;5072385;28;20170;-81
2022/10/12 00:51:26;;;;;;;5.55;3.90;;;9.00;99.90;;;;;;5072398;28;20215;-81
2022/10/12 00:54:04;;;;;;;9.65;4.38;;;9.10;99.90;;;;;;5070738;28;20261;-91
2022/10/12 00:56:33;;;;;;;11.20;3.78;;;9.00;99.90;;;;;;5071211;28;20213;-85
2022/10/12 00:59:03;;;;;;;12.93;5.03;;;8.90;99.90;;;;;;5075215;28;20162;-84
2022/10/12 01:01:33;;;;;;;6.35;4.55;;;9.00;99.90;;;;;;5075178;28;20779;-82
2022/10/12 01:03:59;;;;;;;9.65;5.75;;;8.90;99.90;;;;;;5074582;28;20846;-80
2022/10/12 01:06:24;;;;;;;10.82;4.78;;;8.90;99.90;;;;;;5076128;28;20190;-82
2022/10/12 01:08:52;;;;;;;9.93;4.18;;;8.80;99.90;;;;;;5076667;28;20162;-81
2022/10/12 01:11:18;;;;;;;10.45;4.70;;;8.70;99.90;;;;;;5076379;28;20181;-89
2022/10/12 01:13:43;;;;;;;11.65;4.95;;;8.70;99.90;;;;;;5076118;28;20568;-89
2022/10/12 01:16:21;;;;;;;7.80;4.25;;;8.70;99.90;;;;;;5075697;28;20202;-92
2022/10/12 01:19:14;;;;;;;7.07;4.32;;;8.70;99.90;;;;;;5074751;28;20173;-81
2022/10/12 01:21:50;;;;;;;13.02;3.95;;;8.60;99.90;;;;;;5074703;28;20175;-88
2022/10/12 01:24:38;;;;;;;7.25;4.00;;;8.80;99.90;;;;;;5076081;28;20164;-84
2022/10/12 01:27:34;;;;;;;12.45;4.38;;;8.80;99.90;;;;;;5074865;28;20179;-84
2022/10/12 01:30:27;;;;;;;6.55;3.58;;;8.80;99.90;;;;;;5075630;28;20178;-82
2022/10/12 01:33:12;;;;;;;3.95;3.33;;;8.90;99.90;;;;;;5074011;28;20210;-87
2022/10/12 01:35:37;;;;;;;11.52;4.03;;;8.90;99.90;;;;;;5074140;28;20219;-82
2022/10/12 01:38:03;;;;;;;11.88;4.50;;;9.00;99.90;;;;;;5073988;28;20179;-89
2022/10/12 01:41:02;;;;;;;7.07;3.70;;;8.90;99.90;;;;;;5074328;28;20175;-81
2022/10/12 01:43:40;;;;;;;7.72;3.50;;;8.80;99.90;;;;;;5070970;28;20186;-88
2022/10/12 01:46:25;;;;;;;12.00;3.83;;;8.90;99.90;;;;;;5075895;28;20186;-89
2022/10/12 01:48:55;;;;;;;12.88;4.10;;;8.60;99.90;;;;;;5071502;28;20666;-95
2022/10/12 01:51:47;;;;;;;16.10;4.82;;;8.40;99.90;;;;;;5075832;28;20162;-83
2022/10/12 01:54:15;;;;;;;6.35;4.03;;;8.50;99.90;;;;;;5065909;28;20178;-82
2022/10/12 01:56:56;;;;;;;5.95;3.40;;;8.60;99.90;;;;;;5075185;28;20191;-82
2022/10/12 01:59:41;;;;;;;6.07;3.35;;;8.40;99.90;;;;;;5075447;28;20175;-92
2022/10/12 02:02:18;;;;;;;16.25;3.60;;;8.40;99.90;;;;;;5075289;28;20273;-79
2022/10/12 02:05:02;;;;;;;9.05;4.10;;;8.50;99.90;;;;;;5073864;28;20715;-80
2022/10/12 02:07:42;;;;;;;9.38;3.80;;;8.50;99.90;;;;;;5074282;28;20637;-81
2022/10/12 02:10:14;;;;;;;14.70;4.57;;;8.40;99.90;;;;;;5072780;28;20264;-80
2022/10/12 02:12:42;;;;;;;9.07;3.90;;;8.70;99.90;;;;;;5073928;28;20617;-91
2022/10/12 02:15:10;;;;;;;4.97;3.70;;;8.50;99.90;;;;;;5073580;28;20305;-82
2022/10/12 02:17:39;;;;;;;5.78;3.90;;;8.50;99.90;;;;;;5073731;28;20224;-86
2022/10/12 02:20:08;;;;;;;6.05;3.80;;;8.50;99.90;;;;;;5075147;28;20249;-88
2022/10/12 02:22:36;;;;;;;10.40;4.65;;;8.30;99.90;;;;;;5075420;28;20171;-81
2022/10/12 02:25:05;;;;;;;14.32;4.85;;;8.20;99.90;;;;;;5083179;28;20194;-81
2022/10/12 02:27:33;;;;;;;10.20;4.90;;;8.20;99.90;;;;;;5088856;28;20150;-83
2022/10/12 02:29:59;;;;;;;10.65;4.32;;;8.30;99.90;;;;;;5097295;28;20174;-79
2022/10/12 02:32:41;;;;;;;7.65;4.22;;;8.40;99.90;;;;;;5075816;28;20186;-80
2022/10/12 02:35:23;;;;;;;13.00;3.95;;;8.50;99.90;;;;;;5092641;22;20216;-84
2022/10/12 02:38:10;;;;;;;11.95;3.97;;;8.60;99.90;;;;;;5034362;28;20634;-87
2022/10/12 02:40:43;;;;;;;7.75;4.22;;;8.40;99.90;;;;;;5035244;28;20626;-91
2022/10/12 02:43:19;;;;;;;9.02;4.38;;;8.40;99.90;;;;;;5036035;28;20251;-96
2022/10/12 02:45:51;;;;;;;13.95;4.38;;;8.40;99.90;;;;;;5036129;28;20183;-95
2022/10/12 02:48:25;;;;;;;7.28;4.07;;;8.40;99.90;;;;;;5035787;28;20198;-96
2022/10/12 02:50:54;;;;;;;15.10;4.13;;;8.30;99.90;;;;;;5035556;28;20325;-88
2022/10/12 02:53:22;;;;;;;8.77;4.05;;;8.30;99.90;;;;;;5018300;28;20176;-95
2022/10/12 02:55:51;;;;;;;10.43;4.25;;;8.40;99.90;;;;;;5034593;28;20689;-94
2022/10/12 02:58:17;;;;;;;14.52;4.82;;;8.50;99.90;;;;;;5034744;28;20168;-87
2022/10/12 03:00:43;;;;;;;7.72;5.10;;;8.40;99.90;;;;;;5036208;28;20172;-91
2022/10/12 03:03:09;;;;;;;10.65;4.40;;;8.40;99.90;;;;;;5035733;28;20529;-93
2022/10/12 03:05:34;;;;;;;10.18;3.67;;;8.20;99.90;;;;;;5035675;28;20274;-89
2022/10/12 03:08:00;;;;;;;15.02;4.85;;;8.10;99.90;;;;;;5036282;28;20171;-88
2022/10/12 03:10:25;;;;;;;5.97;4.10;;;8.00;99.90;;;;;;5036106;28;20183;-94
2022/10/12 03:12:51;;;;;;;9.20;3.95;;;8.10;99.90;;;;;;5050899;28;20178;-88
2022/10/12 03:15:16;;;;;;;11.77;4.90;;;8.20;99.90;;;;;;5034945;28;20215;-88
2022/10/12 03:17:42;;;;;;;7.40;4.47;;;8.10;99.90;;;;;;5037422;28;20181;-95
2022/10/12 03:20:08;;;;;;;12.88;5.18;;;8.10;99.90;;;;;;5037667;28;20168;-95
2022/10/12 03:22:34;;;;;;;8.93;4.13;;;8.10;99.90;;;;;;5035645;28;20217;-88
2022/10/12 03:24:59;;;;;;;17.30;4.22;;;8.30;99.90;;;;;;5035303;28;20274;-86
2022/10/12 03:27:25;;;;;;;19.65;5.00;;;8.50;99.90;;;;;;5034279;28;20171;-84
2022/10/12 03:29:51;;;;;;;10.63;4.63;;;8.40;99.90;;;;;;5035680;28;20539;-93
2022/10/12 03:32:17;;;;;;;11.32;4.63;;;8.30;99.90;;;;;;5036128;28;20684;-94
2022/10/12 03:34:43;;;;;;;11.30;4.85;;;8.50;99.90;;;;;;5033735;28;20208;-81
2022/10/12 03:37:09;;;;;;;8.98;4.75;;;8.60;99.90;;;;;;5035113;28;20174;-88
2022/10/12 03:39:34;;;;;;;9.30;4.80;;;8.70;99.90;;;;;;5034281;28;20629;-92
2022/10/12 03:42:00;;;;;;;12.52;4.93;;;8.60;99.90;;;;;;5035223;28;20178;-94
2022/10/12 03:44:26;;;;;;;7.00;4.40;;;8.60;99.90;;;;;;5034408;28;20171;-91
2022/10/12 03:46:51;;;;;;;5.97;4.18;;;8.70;99.90;;;;;;5036981;28;20275;-82
2022/10/12 03:49:17;;;;;;;7.47;4.45;;;8.60;99.90;;;;;;5019744;28;20202;-93
2022/10/12 03:51:42;;;;;;;12.65;5.13;;;8.70;99.90;;;;;;5036054;28;20176;-86
2022/10/12 03:54:08;;;;;;;12.70;4.85;;;8.60;99.90;;;;;;5034159;28;20748;-87
2022/10/12 03:56:34;;;;;;;10.02;4.47;;;8.70;99.90;;;;;;5034878;28;20216;-81
2022/10/12 03:58:59;;;;;;;6.75;4.75;;;8.60;99.90;;;;;;5034040;28;20176;-85
2022/10/12 04:01:25;;;;;;;10.00;4.68;;;8.60;99.90;;;;;;5050372;28;20183;-90
2022/10/12 04:04:14;;;;;;;11.95;5.47;;;8.50;99.90;;;;;;5057832;28;20231;-81
2022/10/12 04:06:39;;;;;;;10.07;5.28;;;8.40;99.90;;;;;;5055934;28;20329;-95
2022/10/12 04:09:05;;;;;;;19.58;5.53;;;8.50;99.90;;;;;;5055609;28;20205;-91
2022/10/12 04:11:30;;;;;;;9.95;5.30;;;8.50;99.90;;;;;;5054123;28;20171;-87
2022/10/12 04:13:56;;;;;;;19.00;6.03;;;8.70;99.90;;;;;;5055050;28;20528;-88
2022/10/12 04:16:21;;;;;;;12.52;5.63;;;8.70;99.90;;;;;;5054273;28;20217;-94
2022/10/12 04:18:47;;;;;;;14.02;5.82;;;8.60;99.90;;;;;;5055254;28;20186;-90
2022/10/12 04:21:14;;;;;;;10.68;5.60;;;8.50;99.90;;;;;;5055102;28;20617;-91
2022/10/12 04:23:41;;;;;;;7.07;5.10;;;8.40;99.90;;;;;;5052739;28;20177;-83
2022/10/12 04:26:06;;;;;;;20.08;5.85;;;8.30;99.90;;;;;;5052958;28;20194;-92
2022/10/12 04:28:32;;;;;;;8.13;5.63;;;8.20;99.90;;;;;;5052592;28;20171;-80
2022/10/12 04:30:58;;;;;;;20.63;5.80;;;8.30;99.90;;;;;;5053012;28;20190;-84
2022/10/12 04:33:24;;;;;;;7.80;5.80;;;8.50;99.90;;;;;;5054032;28;20626;-81
2022/10/12 04:35:49;;;;;;;8.00;4.68;;;8.50;99.90;;;;;;5053636;28;20249;-90
2022/10/12 04:38:15;;;;;;;8.73;5.30;;;8.40;99.90;;;;;;5052870;28;20166;-83
2022/10/12 04:40:45;;;;;;;10.10;5.93;;;8.40;99.90;;;;;;5053816;28;20175;-93
2022/10/12 04:43:11;;;;;;;14.18;5.47;;;8.30;99.90;;;;;;5053389;28;20203;-83
2022/10/12 04:45:36;;;;;;;20.73;6.03;;;8.20;99.90;;;;;;5052255;28;20201;-81
2022/10/12 04:48:02;;;;;;;17.10;6.32;;;8.30;99.90;;;;;;5052907;28;20166;-80
2022/10/12 04:50:27;;;;;;;18.00;6.68;;;8.30;99.90;;;;;;5052910;28;20178;-80
2022/10/12 04:52:53;;;;;;;9.75;5.80;;;8.20;99.90;;;;;;5052349;28;20163;-82
2022/10/12 04:55:18;;;;;;;13.30;6.18;;;8.20;99.90;;;;;;5053948;28;20536;-87
2022/10/12 04:57:44;;;;;;;20.25;6.43;;;8.30;99.90;;;;;;5054366;28;20353;-95
2022/10/12 05:00:10;;;;;;;15.25;6.68;;;8.40;99.90;;;;;;5052082;28;20163;-85
2022/10/12 05:02:36;;;;;;;9.23;6.50;;;8.40;99.90;;;;;;5050209;28;20224;-80
2022/10/12 05:05:01;;;;;;;17.80;6.70;;;8.40;99.90;;;;;;5052481;28;20305;-80
2022/10/12 05:07:27;;;;;;;12.27;6.32;;;8.40;99.90;;;;;;5051413;28;20258;-80
2022/10/12 05:09:53;;;;;;;23.15;7.55;;;8.40;99.90;;;;;;5054002;28;20167;-89
2022/10/12 05:12:19;;;;;;;11.43;6.30;;;8.50;99.90;;;;;;5053272;28;20159;-81
2022/10/12 05:14:44;;;;;;;11.98;6.55;;;8.40;99.90;;;;;;5052102;28;20739;-83
2022/10/12 05:17:10;;;;;;;18.45;7.22;;;8.40;99.90;;;;;;5052275;28;20175;-81
2022/10/12 05:19:36;;;;;;;14.38;5.97;;;8.50;99.90;;;;;;5050142;28;20207;-79
2022/10/12 05:22:01;;;;;;;11.25;5.97;;;8.60;99.90;;;;;;5051701;28;20163;-87
2022/10/12 05:24:27;;;;;;;17.42;7.88;;;8.50;99.90;;;;;;5051923;28;20167;-84
2022/10/12 05:26:53;;;;;;;19.50;6.68;;;8.30;99.90;;;;;;5052315;28;20584;-85
2022/10/12 05:29:18;;;;;;;13.63;6.80;;;8.00;99.90;;;;;;5050797;28;20201;-84
2022/10/12 05:31:44;;;;;;;12.40;6.75;;;8.10;99.90;;;;;;5052124;28;20163;-87
2022/10/12 05:34:10;;;;;;;12.25;6.38;;;8.20;99.90;;;;;;5051667;28;20694;-79
2022/10/12 05:36:35;;;;;;;17.63;7.53;;;8.10;99.90;;;;;;5052696;28;20264;-80
2022/10/12 05:39:01;;;;;;;12.50;8.45;;;8.20;99.90;;;;;;5051815;28;20174;-80
2022/10/12 05:41:26;;;;;;;15.30;7.22;;;8.30;99.90;;;;;;5051846;28;20229;-82
2022/10/12 05:43:52;;;;;;;19.92;8.13;;;8.30;99.90;;;;;;5051318;28;20171;-83
2022/10/12 05:46:18;;;;;;;13.18;6.97;;;8.30;99.90;;;;;;5055403;28;20575;-88
2022/10/12 05:48:43;;;;;;;20.27;8.75;;;8.50;99.90;;;;;;5053895;28;20171;-79
2022/10/12 05:51:09;;;;;;;9.60;6.78;;;8.50;99.90;;;;;;5054093;28;20163;-80
2022/10/12 05:53:35;;;;;;;13.98;7.88;;;8.50;99.90;;;;;;5053952;28;20182;-82
2022/10/12 05:56:02;;;;;;;19.15;8.20;;;8.30;99.90;;;;;;5055369;28;20293;-81
2022/10/12 05:58:29;;;;;;;17.08;7.95;;;8.30;99.90;;;;;;5053664;28;20258;-79
2022/10/12 06:01:02;;;;;;;22.02;7.80;;;8.40;99.90;;;;;;5037345;28;20179;-79
2022/10/12 06:03:28;;;;;;;20.98;7.85;;;8.50;99.90;;;;;;5055130;28;20163;-79
2022/10/12 06:05:53;;;;;;;21.77;7.40;;;8.60;99.90;;;;;;5055324;28;20183;-84
2022/10/12 06:08:19;;;;;;;28.20;7.57;;;8.50;99.90;;;;;;5055061;28;20182;-79
2022/10/12 06:10:48;;;;;;;20.10;8.60;;;8.30;99.90;;;;;;5054798;28;20160;-79
2022/10/12 06:13:16;;;;;;;10.63;7.22;;;8.30;99.90;;;;;;5055799;28;20179;-80
2022/10/12 06:15:44;;;;;;;11.48;6.40;;;8.30;99.90;;;;;;5055356;28;20290;-81
2022/10/12 06:18:10;;;;;;;27.10;8.05;;;8.30;99.90;;;;;;5038384;28;20187;-79
2022/10/12 06:20:36;;;;;;;11.30;7.82;;;8.20;99.90;;;;;;5055136;28;20633;-89
2022/10/12 06:23:03;;;;;;;19.75;7.32;;;8.10;99.90;;;;;;5054722;28;20178;-80
2022/10/12 06:25:28;;;;;;;12.55;7.22;;;8.20;99.90;;;;;;5055815;28;20767;-85
2022/10/12 06:27:54;;;;;;;27.17;8.68;;;8.40;99.90;;;;;;5055066;28;20191;-84
2022/10/12 06:30:19;;;;;;;27.02;8.35;;;8.60;99.90;;;;;;5054122;28;20168;-79
2022/10/12 06:32:45;;;;;;;18.20;7.82;;;8.70;99.90;;;;;;5054700;28;20168;-79
2022/10/12 06:35:10;;;;;;;17.25;7.95;;;8.70;99.90;;;;;;5054665;28;20219;-80
2022/10/12 06:37:36;;;;;;;16.35;6.40;;;8.70;99.90;;;;;;5058571;28;20168;-79
2022/10/12 06:40:04;;;;;;;21.88;8.40;;;8.80;99.90;;;;;;5055142;28;20167;-81
2022/10/12 06:42:30;;;;;;;24.75;8.80;;;8.90;99.90;;;;;;5058444;28;20250;-94
2022/10/12 06:44:56;;;;;;;14.05;8.50;;;9.10;99.90;;;;;;5052251;28;20328;-80
2022/10/12 06:47:30;;;;;;;17.23;8.73;;;9.20;99.90;;;;;;5055925;28;20163;-84
2022/10/12 06:49:56;;;;;;;21.33;8.02;;;9.30;99.90;;;;;;5056957;28;20200;-92
2022/10/12 06:52:21;;;;;;;23.90;9.35;;;9.20;99.90;;;;;;5060280;28;20250;-95
2022/10/12 06:54:47;;;;;;;11.60;7.85;;;9.10;99.90;;;;;;5065879;28;21221;-82
2022/10/12 06:57:12;;;;;;;26.65;7.80;;;9.10;99.90;;;;;;5065962;28;20242;-95
2022/10/12 06:59:38;;;;;;;15.05;7.22;;;9.20;99.90;;;;;;5059651;28;20175;-96
2022/10/12 07:02:05;;;;;;;18.25;8.35;;;9.20;99.90;;;;;;5056734;28;20171;-94
2022/10/12 07:04:30;;;;;;;19.25;9.02;;;9.30;99.90;;;;;;5060072;28;20177;-93
2022/10/12 07:06:56;;;;;;;21.88;7.93;;;9.50;99.90;;;;;;5067585;28;20206;-93
2022/10/12 07:09:22;;;;;;;30.40;8.07;;;9.60;99.90;;;;;;5067955;28;20182;-84
2022/10/12 07:11:48;;;;;;;16.42;8.80;;;9.60;99.90;;;;;;5069192;28;20171;-95
2022/10/12 07:14:14;;;;;;;27.17;8.27;;;9.70;99.90;;;;;;5066196;28;20216;-91
2022/10/12 07:16:39;;;;;;;18.17;8.30;;;9.90;99.90;;;;;;5068322;28;20214;-88
2022/10/12 07:19:09;;;;;;;22.13;8.45;;;9.90;99.90;;;;;;5070220;28;20532;-89
2022/10/12 07:21:35;;;;;;;13.55;8.18;;;10.10;99.90;;;;;;5052720;28;20704;-94
2022/10/12 07:24:00;;;;;;;26.13;8.15;;;10.30;99.90;;;;;;5047037;28;20177;-91
2022/10/12 07:26:26;;;;;;;19.45;8.20;;;10.50;99.90;;;;;;5044358;28;20191;-82
2022/10/12 07:28:51;;;;;;;18.42;8.57;;;10.50;99.90;;;;;;5036508;28;20656;-95
2022/10/12 07:31:19;;;;;;;23.05;8.40;;;10.50;99.90;;;;;;5040376;28;20171;-90
2022/10/12 07:33:44;;;;;;;18.95;7.78;;;10.40;99.90;;;;;;5038018;28;20179;-95
2022/10/12 07:36:10;;;;;;;18.30;8.23;;;10.60;99.90;;;;;;5055846;28;20227;-96
2022/10/12 07:38:36;;;;;;;20.25;8.20;;;10.60;99.90;;;;;;5066597;28;20208;-94
2022/10/12 07:41:02;;;;;;;28.70;8.18;;;10.90;99.90;;;;;;5056834;28;20213;-93
2022/10/12 07:43:30;;;;;;;16.67;7.63;;;11.10;99.90;;;;;;5048513;28;20171;-94
2022/10/12 07:45:56;;;;;;;24.50;6.85;;;11.30;99.90;;;;;;5040577;28;20195;-95
2022/10/12 07:48:23;;;;;;;25.23;9.48;;;11.50;99.90;;;;;;5043162;28;20210;-89
2022/10/12 07:50:49;;;;;;;12.10;7.22;;;11.60;99.90;;;;;;5037775;28;20183;-93
2022/10/12 07:53:15;;;;;;;15.25;6.75;;;11.70;99.90;;;;;;5044319;28;20171;-93
2022/10/12 07:55:41;;;;;;;16.70;6.93;;;11.80;99.90;;;;;;5058054;28;20215;-87
2022/10/12 07:58:07;;;;;;;18.33;7.32;;;12.00;99.90;;;;;;5057985;28;20167;-90
2022/10/12 08:00:33;;;;;;;12.20;7.88;;;12.20;99.90;;;;;;5054534;28;20244;-93
2022/10/12 08:02:58;;;;;;;19.00;7.13;;;12.20;99.90;;;;;;5047814;28;20595;-85
2022/10/12 08:05:26;;;;;;;20.70;7.18;;;12.30;99.90;;;;;;5034530;28;20191;-92
2022/10/12 08:07:52;;;;;;;14.18;7.47;;;12.40;99.90;;;;;;5033458;28;20653;-90
2022/10/12 08:10:19;;;;;;;18.73;6.80;;;12.60;99.90;;;;;;5034156;28;20168;-91
2022/10/12 08:12:45;;;;;;;12.10;5.75;;;12.70;99.90;;;;;;5034054;28;20159;-90
2022/10/12 08:15:12;;;;;;;10.80;4.47;;;12.60;99.90;;;;;;5034467;28;20218;-92
2022/10/12 08:17:38;;;;;;;18.40;4.78;;;12.60;99.90;;;;;;5035196;28;20167;-92
2022/10/12 08:20:04;;;;;;;8.40;5.40;;;12.60;99.90;;;;;;5034211;28;20171;-89
2022/10/12 08:22:30;;;;;;;18.42;5.05;;;12.70;99.90;;;;;;5047494;28;20167;-94
2022/10/12 08:24:56;;;;;;;15.25;4.80;;;12.60;99.90;;;;;;5052949;28;20197;-89
2022/10/12 08:27:21;;;;;;;7.70;4.38;;;12.60;99.90;;;;;;5057952;28;20163;-95
2022/10/12 08:29:47;;;;;;;6.57;4.65;;;12.40;99.90;;;;;;5054459;28;20175;-96
2022/10/12 08:32:12;;;;;;;10.05;4.65;;;12.20;99.90;;;;;;5054460;28;20206;-94
2022/10/12 08:34:38;;;;;;;10.63;4.38;;;11.80;99.90;;;;;;5047410;28;20179;-90
2022/10/12 08:37:05;;;;;;;16.45;4.65;;;11.90;99.90;;;;;;5033827;28;20222;-88
2022/10/12 08:39:33;;;;;;;12.82;5.10;;;12.00;99.90;;;;;;5035602;28;20168;-89
2022/10/12 08:42:32;;;;;;;21.33;5.40;;;12.10;99.90;;;;;;5039906;28;20195;-92
2022/10/12 08:45:22;;;;;;;6.85;3.70;;;11.90;99.90;;;;;;5033414;28;20304;-92
2022/10/12 08:48:04;;;;;;;14.13;4.13;;;12.00;99.90;;;;;;5036068;28;20176;-95
2022/10/12 08:50:41;;;;;;;12.70;4.80;;;12.20;99.90;;;;;;5028282;28;20226;-90
2022/10/12 08:53:18;;;;;;;9.60;4.25;;;12.30;99.90;;;;;;5043586;28;20164;-94
2022/10/12 08:55:51;;;;;;;22.83;5.60;;;12.30;99.90;;;;;;5029655;28;20242;-79
2022/10/12 08:58:38;;;;;;;15.65;4.65;;;12.20;99.90;;;;;;5040094;28;20192;-79
2022/10/12 09:01:29;;;;;;;13.90;4.57;;;12.40;99.90;;;;;;5049558;28;20172;-78
2022/10/12 09:04:32;;;;;;;11.02;5.18;;;12.60;99.90;;;;;;5053617;28;20222;-91
2022/10/12 09:07:19;;;;;;;9.80;4.68;;;12.70;99.90;;;;;;5047673;28;20207;-89
2022/10/12 09:09:56;;;;;;;9.52;5.35;;;12.80;99.90;;;;;;5031985;28;20634;-82
2022/10/12 09:12:36;;;;;;;8.02;4.63;;;12.90;99.90;;;;;;5032461;28;20203;-82
2022/10/12 09:15:11;;;;;;;8.13;4.43;;;13.00;99.90;;;;;;5030646;28;20223;-80
2022/10/12 09:17:51;;;;;;;11.05;5.53;;;13.30;99.90;;;;;;5031296;28;20164;-82
2022/10/12 09:20:20;;;;;;;13.75;5.55;;;13.30;99.90;;;;;;5035725;28;20171;-81
2022/10/12 09:22:52;;;;;;;22.60;5.18;;;13.30;99.90;;;;;;5035998;28;20625;-86
2022/10/12 09:25:23;;;;;;;10.32;4.90;;;13.20;99.90;;;;;;5041974;28;20222;-87
2022/10/12 09:27:49;;;;;;;10.40;4.82;;;13.30;99.90;;;;;;5047863;28;20164;-84
2022/10/12 09:30:17;;;;;;;11.80;5.10;;;13.40;99.90;;;;;;5045013;28;20168;-87
2022/10/12 09:33:10;;;;;;;21.20;6.13;;;13.30;99.90;;;;;;5042862;28;20163;-87
2022/10/12 09:35:36;;;;;;;9.98;7.22;;;13.30;99.90;;;;;;5036564;28;20565;-89
2022/10/12 09:38:02;;;;;;;10.00;6.35;;;13.30;99.90;;;;;;5036864;28;20175;-87
2022/10/12 09:40:31;;;;;;;15.07;5.35;;;13.50;99.90;;;;;;5037076;28;20167;-87
2022/10/12 09:42:58;;;;;;;9.63;5.47;;;13.70;99.90;;;;;;5035296;28;20172;-82
2022/10/12 09:45:25;;;;;;;7.97;4.95;;;13.80;99.90;;;;;;5036817;28;20233;-88
2022/10/12 09:48:10;;;;;;;13.05;5.78;;;13.90;99.90;;;;;;5036625;28;20167;-88
2022/10/12 09:50:40;;;;;;;6.72;4.60;;;13.90;99.90;;;;;;5035102;28;20188;-88
2022/10/12 09:53:26;;;;;;;9.10;6.13;;;14.00;99.90;;;;;;5036116;28;20304;-88
2022/10/12 09:56:08;;;;;;;13.75;4.90;;;14.00;99.90;;;;;;5022292;28;20223;-90
2022/10/12 09:58:52;;;;;;;8.25;4.25;;;14.10;99.90;;;;;;5035397;28;20163;-83
2022/10/12 10:01:22;;;;;;;9.10;4.60;;;14.10;99.90;;;;;;5036206;28;20191;-84
2022/10/12 10:04:04;;;;;;;9.93;4.60;;;14.10;99.90;;;;;;5036865;28;20176;-83
2022/10/12 10:06:30;;;;;;;13.80;5.10;;;14.10;99.90;;;;;;5035142;28;20191;-78
2022/10/12 10:08:57;;;;;;;12.98;5.25;;;14.00;99.90;;;;;;5036255;28;20221;-85
2022/10/12 10:11:26;;;;;;;14.15;5.45;;;14.20;99.90;;;;;;5035706;28;20254;-85
2022/10/12 10:13:53;;;;;;;15.30;4.68;;;14.30;99.90;;;;;;5035590;28;20630;-86
2022/10/12 10:16:22;;;;;;;11.32;5.20;;;14.30;99.90;;;;;;5036182;28;20211;-86
2022/10/12 10:18:52;;;;;;;9.75;4.82;;;14.30;99.90;;;;;;5036488;28;20204;-85
2022/10/12 10:21:33;;;;;;;11.25;5.13;;;14.40;99.90;;;;;;5036104;28;20176;-86
2022/10/12 10:24:37;;;;;;;12.20;5.10;;;14.40;99.90;;;;;;5036299;28;20191;-81
2022/10/12 10:27:04;;;;;;;11.23;5.00;;;14.40;99.90;;;;;;5034835;28;20756;-80
2022/10/12 10:29:39;;;;;;;8.80;4.63;;;14.50;99.90;;;;;;5034120;28;20529;-82
2022/10/12 10:32:22;;;;;;;8.65;4.72;;;14.60;99.90;;;;;;5033962;28;20167;-81
2022/10/12 10:35:16;;;;;;;7.28;5.00;;;14.50;99.90;;;;;;5032393;28;20229;-81
2022/10/12 10:37:44;;;;;;;13.57;5.40;;;14.60;99.90;;;;;;5032592;28;20171;-81
2022/10/12 10:40:22;;;;;;;12.90;5.22;;;14.70;99.90;;;;;;5033274;28;20179;-83
2022/10/12 10:43:24;;;;;;;28.23;5.05;;;15.00;99.90;;;;;;5035246;28;20176;-85
2022/10/12 10:45:53;;;;;;;10.93;6.35;;;15.30;99.90;;;;;;5035284;28;20199;-84
2022/10/12 10:48:22;;;;;;;7.93;4.63;;;15.40;99.90;;;;;;5035923;28;20555;-86
2022/10/12 10:51:02;;;;;;;11.90;4.93;;;15.40;99.90;;;;;;5035442;28;20160;-87
2022/10/12 10:54:11;;;;;;;12.73;4.15;;;15.60;99.90;;;;;;5034065;28;20237;-85
2022/10/12 10:56:37;;;;;;;9.38;3.83;;;15.80;99.90;;;;;;5021948;28;20222;-83
2022/10/12 10:59:15;;;;;;;6.50;4.18;;;16.10;99.90;;;;;;5032834;28;20168;-83
2022/10/12 11:01:56;;;;;;;7.80;4.57;;;16.20;99.90;;;;;;5034059;28;20580;-85
2022/10/12 11:04:42;;;;;;;9.43;4.65;;;16.30;99.90;;;;;;5034075;28;20172;-84
2022/10/12 11:07:15;;;;;;;13.63;4.72;;;16.50;99.90;;;;;;5032731;28;20863;-84
2022/10/12 11:09:44;;;;;;;11.07;3.80;;;16.80;99.90;;;;;;5034364;28;20187;-83
2022/10/12 11:12:19;;;;;;;8.18;4.03;;;16.20;99.90;;;;;;5034115;28;20223;-85
2022/10/12 11:14:52;;;;;;;9.45;3.80;;;16.20;99.90;;;;;;5033843;28;20513;-84
2022/10/12 11:17:31;;;;;;;10.88;3.65;;;16.10;99.90;;;;;;5034351;28;20172;-84
2022/10/12 11:20:05;;;;;;;10.55;4.88;;;16.20;99.90;;;;;;5033141;28;20260;-83
2022/10/12 11:22:44;;;;;;;8.95;3.85;;;16.30;99.90;;;;;;5033558;28;20161;-83
2022/10/12 11:25:22;;;;;;;6.50;4.13;;;16.40;99.90;;;;;;5032947;28;20183;-86
2022/10/12 11:27:49;;;;;;;17.77;4.30;;;16.50;99.90;;;;;;5032282;28;20167;-87
2022/10/12 11:30:23;;;;;;;8.45;4.28;;;16.70;99.90;;;;;;5032916;28;20199;-82
2022/10/12 11:32:52;;;;;;;5.90;3.85;;;16.90;99.90;;;;;;5033175;28;20168;-83
2022/10/12 11:35:33;;;;;;;8.45;4.28;;;16.80;99.90;;;;;;5033135;28;20203;-81
2022/10/12 11:38:16;;;;;;;9.10;4.47;;;16.80;99.90;;;;;;5033544;28;20167;-82
2022/10/12 11:40:50;;;;;;;5.05;3.72;;;16.70;99.90;;;;;;5033597;28;20192;-82
2022/10/12 11:43:22;;;;;;;12.50;4.35;;;16.90;99.90;;;;;;5033117;28;20167;-82
2022/10/12 11:45:52;;;;;;;9.98;4.20;;;16.80;99.90;;;;;;5033471;28;20180;-85
2022/10/12 11:48:26;;;;;;;10.50;4.25;;;16.60;99.90;;;;;;5032851;28;20645;-85
2022/10/12 11:50:51;;;;;;;12.40;4.20;;;16.40;99.90;;;;;;5031991;28;20168;-87
2022/10/12 11:53:20;;;;;;;12.68;4.45;;;16.30;99.90;;;;;;5033558;28;20163;-86
2022/10/12 11:56:11;;;;;;;11.13;4.00;;;16.30;99.90;;;;;;5032264;28;20217;-82
2022/10/12 11:58:40;;;;;;;6.93;3.67;;;16.10;99.90;;;;;;5033552;28;20601;-83
2022/10/12 12:01:14;;;;;;;10.40;4.28;;;16.30;99.90;;;;;;5033656;28;20160;-81
2022/10/12 12:03:43;;;;;;;7.10;3.42;;;16.30;99.90;;;;;;5033020;28;20181;-81
2022/10/12 12:06:27;;;;;;;8.90;4.50;;;16.50;99.90;;;;;;5033141;28;20192;-84
2022/10/12 12:08:52;;;;;;;10.95;3.75;;;16.70;99.90;;;;;;5032089;28;20175;-86
2022/10/12 12:11:25;;;;;;;8.10;3.22;;;17.00;99.90;;;;;;5033617;28;20171;-82
2022/10/12 12:14:19;;;;;;;10.85;4.15;;;17.20;99.90;;;;;;5032895;28;20349;-82
2022/10/12 12:16:49;;;;;;;7.53;3.40;;;17.40;99.90;;;;;;5032545;28;20210;-82
2022/10/12 12:19:33;;;;;;;4.50;3.03;;;17.70;99.90;;;;;;5032409;28;20216;-82
2022/10/12 12:22:22;;;;;;;13.65;5.07;;;17.70;99.90;;;;;;5031036;28;20171;-80
2022/10/12 12:25:09;;;;;;;21.63;7.88;;;17.60;99.90;;;;;;5032502;28;20235;-81
2022/10/12 12:27:50;;;;;;;11.98;4.75;;;17.70;99.90;;;;;;5032567;28;20200;-85
2022/10/12 12:30:20;;;;;;;12.02;4.45;;;17.40;99.90;;;;;;5033058;28;20629;-83
2022/10/12 12:32:46;;;;;;;14.77;3.90;;;17.70;99.90;;;;;;5033006;28;20191;-84
2022/10/12 12:35:25;;;;;;;30.90;5.43;;;17.70;99.90;;;;;;5031359;28;20215;-85
2022/10/12 12:38:10;;;;;;;4.35;2.83;;;17.80;99.90;;;;;;5031356;28;20259;-86
2022/10/12 12:40:37;;;;;;;7.85;4.05;;;17.70;99.90;;;;;;5033121;28;20251;-86
2022/10/12 12:43:28;;;;;;;5.03;3.35;;;17.70;99.90;;;;;;5031636;28;20641;-83
2022/10/12 12:45:57;;;;;;;7.97;3.72;;;17.80;99.90;;;;;;4994757;28;20289;-81
2022/10/12 12:48:37;;;;;;;4.10;3.10;;;17.70;99.90;;;;;;5032520;28;20163;-81
2022/10/12 12:51:24;;;;;;;6.18;3.17;;;17.70;99.90;;;;;;5032559;28;20168;-81
2022/10/12 12:53:55;;;;;;;4.47;2.85;;;17.90;99.90;;;;;;5031793;28;20182;-81
2022/10/12 12:56:41;;;;;;;7.97;3.30;;;17.90;99.90;;;;;;5034783;28;20264;-81
2022/10/12 12:59:57;;;;;;;6.90;3.55;;;18.10;99.90;;;;;;5037132;28;20179;-84
2022/10/12 13:02:47;;;;;;;7.68;4.25;;;18.10;99.90;;;;;;5002980;28;20187;-83
2022/10/12 13:05:19;;;;;;;6.88;4.60;;;17.80;99.90;;;;;;5036464;28;20235;-84